Time;durP1;ratioP1;P1;durP2;ratioP2;P2;SDS_P1;SDS_P2;PMS_P1;PMS_P2;Temp;Humidity;BMP_temperature;BMP_pressure;BME280_temperature;BME280_humidity;BME280_pressure;Samples;Min_cycle;Max_cycle;Signal;HPM_P1;HPM_P2
2023/03/01 00:01:26;;;;;;;;;24.75;24.75;;;;;5.25;67.55;102515.03;5098549;27;45689;-74
2023/03/01 00:03:52;;;;;;;;;40.50;31.00;;;;;5.18;67.74;102500.09;5100772;27;45385;-73
2023/03/01 00:06:19;;;;;;;;;37.50;29.25;;;;;5.27;67.61;102515.81;5095310;27;45672;-73
2023/03/01 00:08:45;;;;;;;;;30.50;23.00;;;;;4.97;69.26;102487.59;5105565;27;45489;-73
2023/03/01 00:11:13;;;;;;;;;25.25;24.00;;;;;5.11;69.52;102519.31;5098412;27;45422;-73
2023/03/01 00:13:39;;;;;;;;;29.50;24.50;;;;;4.94;69.52;102483.25;5100972;27;45288;-73
2023/03/01 00:16:07;;;;;;;;;29.25;25.75;;;;;4.99;69.76;102494.69;5103204;27;45744;-72
2023/03/01 00:18:33;;;;;;;;;17.50;10.25;;;;;4.96;70.71;102502.91;5100550;27;47141;-73
2023/03/01 00:20:59;;;;;;;;;20.50;20.25;;;;;4.93;71.23;102496.78;5097563;27;45579;-73
2023/03/01 00:23:24;;;;;;;;;35.25;31.75;;;;;4.74;72.78;102490.47;5097042;27;45471;-74
2023/03/01 00:25:50;;;;;;;;;32.00;29.75;;;;;4.91;72.62;102501.34;5101322;27;45611;-74
2023/03/01 00:28:16;;;;;;;;;27.25;22.25;;;;;4.91;72.79;102487.88;5103260;27;45453;-74
2023/03/01 00:30:41;;;;;;;;;27.50;24.50;;;;;4.59;74.25;102492.03;5080137;27;45429;-74
2023/03/01 00:33:07;;;;;;;;;29.25;23.75;;;;;4.83;74.64;102501.69;5094986;27;45471;-73
2023/03/01 00:35:33;;;;;;;;;28.50;26.50;;;;;4.74;75.71;102485.09;5103136;27;45609;-72
2023/03/01 00:37:59;;;;;;;;;33.00;24.25;;;;;5.00;74.23;102514.41;5099736;27;46477;-75
2023/03/01 00:40:26;;;;;;;;;35.50;28.75;;;;;4.97;74.21;102514.53;5101034;27;45325;-73
2023/03/01 00:42:51;;;;;;;;;30.00;26.50;;;;;4.99;74.51;102518.03;5099501;27;45271;-73
2023/03/01 00:45:17;;;;;;;;;33.00;30.50;;;;;4.85;74.79;102494.44;5103019;27;45404;-74
2023/03/01 00:47:42;;;;;;;;;32.50;27.50;;;;;4.73;75.83;102489.59;5096007;27;46199;-74
2023/03/01 00:50:09;;;;;;;;;22.75;17.25;;;;;4.80;75.57;102511.75;5100970;27;45482;-74
2023/03/01 00:52:34;;;;;;;;;31.25;27.00;;;;;4.77;76.52;102501.09;5097594;27;45396;-74
2023/03/01 00:54:59;;;;;;;;;34.00;27.75;;;;;4.86;76.67;102508.78;5099199;27;45377;-74
2023/03/01 00:57:25;;;;;;;;;31.00;24.25;;;;;4.87;76.05;102502.44;5096080;27;46608;-74
2023/03/01 00:59:54;;;;;;;;;31.75;25.00;;;;;4.90;75.31;102510.38;5103436;27;45404;-74
2023/03/01 01:02:20;;;;;;;;;30.00;23.50;;;;;4.88;75.02;102498.81;5100347;27;45436;-74
2023/03/01 01:04:46;;;;;;;;;33.50;29.25;;;;;4.87;75.94;102508.72;5096839;27;45258;-73
2023/03/01 01:07:11;;;;;;;;;36.50;27.00;;;;;4.91;76.57;102520.19;5096243;27;47307;-74
2023/03/01 01:09:37;;;;;;;;;34.00;29.75;;;;;4.78;77.72;102514.50;5093446;27;45435;-74
2023/03/01 01:12:03;;;;;;;;;30.75;26.00;;;;;4.79;77.35;102504.59;5096844;27;45394;-73
2023/03/01 01:14:29;;;;;;;;;23.25;23.25;;;;;4.81;76.79;102483.88;5101443;27;45241;-74
2023/03/01 01:16:54;;;;;;;;;25.50;24.00;;;;;4.92;77.02;102513.88;5097585;27;45340;-73
2023/03/01 01:19:21;;;;;;;;;29.50;27.50;;;;;4.76;76.94;102494.84;5086332;27;45308;-73
2023/03/01 01:21:47;;;;;;;;;34.50;28.75;;;;;4.83;77.35;102500.81;5091850;27;45296;-74
2023/03/01 01:24:13;;;;;;;;;32.50;29.75;;;;;4.84;77.06;102494.50;5104622;27;45570;-74
2023/03/01 01:26:39;;;;;;;;;30.00;27.00;;;;;4.85;77.08;102493.56;5094211;27;47800;-74
2023/03/01 01:29:05;;;;;;;;;37.50;32.00;;;;;4.76;78.13;102493.97;5100530;27;46372;-74
2023/03/01 01:31:32;;;;;;;;;38.75;32.25;;;;;4.79;78.12;102489.31;5096915;27;45387;-73
2023/03/01 01:34:00;;;;;;;;;39.75;33.50;;;;;4.68;78.88;102492.47;5101351;27;45327;-73
2023/03/01 01:36:25;;;;;;;;;38.50;34.00;;;;;4.63;79.28;102469.41;5094887;27;45458;-73
2023/03/01 01:38:51;;;;;;;;;32.00;23.75;;;;;4.74;78.93;102487.78;5100237;27;45314;-74
2023/03/01 01:41:17;;;;;;;;;35.00;30.50;;;;;4.78;78.80;102484.88;5096059;27;46391;-74
2023/03/01 01:44:10;;;;;;;;;35.25;32.50;;;;;4.63;78.30;102454.13;5099518;27;45630;-74
2023/03/01 01:46:50;;;;;;;;;29.75;28.00;;;;;4.66;78.81;102472.84;5090908;27;46642;-74
2023/03/01 01:49:35;;;;;;;;;37.00;35.00;;;;;4.60;80.61;102478.47;5110775;27;45292;-74
2023/03/01 01:52:24;;;;;;;;;53.25;43.25;;;;;4.54;81.43;102473.38;5091777;27;45336;-74
2023/03/01 01:55:00;;;;;;;;;44.00;35.75;;;;;4.25;82.49;102446.88;5099931;27;45408;-75
2023/03/01 01:57:35;;;;;;;;;32.75;32.25;;;;;4.32;82.79;102461.81;5101497;27;47394;-74
2023/03/01 02:00:07;;;;;;;;;40.00;32.25;;;;;4.12;83.47;102438.47;5102327;27;48173;-74
2023/03/01 02:02:33;;;;;;;;;29.75;24.50;;;;;4.13;84.79;102461.72;5099474;27;45424;-74
2023/03/01 02:05:17;;;;;;;;;31.75;27.00;;;;;4.29;85.57;102483.47;5097087;27;45454;-74
2023/03/01 02:07:43;;;;;;;;;25.75;19.75;;;;;4.16;84.31;102461.63;5095339;27;45595;-74
2023/03/01 02:10:09;;;;;;;;;35.75;26.25;;;;;4.20;84.69;102446.19;5088504;27;45496;-75
2023/03/01 02:12:37;;;;;;;;;32.00;27.50;;;;;4.31;84.83;102477.06;5097388;27;45514;-75
2023/03/01 02:15:05;;;;;;;;;28.50;24.00;;;;;4.27;83.86;102443.19;5102227;27;45741;-74
2023/03/01 02:17:31;;;;;;;;;24.75;22.25;;;;;4.29;84.22;102448.50;5100920;27;45449;-74
2023/03/01 02:20:06;;;;;;;;;32.75;31.00;;;;;4.32;84.44;102453.72;5102085;27;46026;-75
2023/03/01 02:22:33;;;;;;;;;34.75;28.50;;;;;4.31;84.69;102443.91;5101714;27;45613;-74
2023/03/01 02:25:35;;;;;;;;;24.25;24.25;;;;;4.42;83.87;102456.91;5097264;27;45704;-74
2023/03/01 02:28:16;;;;;;;;;28.50;26.25;;;;;4.43;84.04;102448.78;5093941;27;46199;-74
2023/03/01 02:31:41;;;;;;;;;26.75;23.00;;;;;4.42;83.88;102452.41;5097010;27;45385;-75
2023/03/01 02:33:35;;;;;;;;;30.25;24.00;;;;;4.37;84.54;102451.75;5096808;27;45411;-74
2023/03/01 02:36:04;;;;;;;;;27.50;26.75;;;;;4.26;84.98;102456.69;5101408;27;45518;-74
2023/03/01 02:38:30;;;;;;;;;30.25;24.50;;;;;4.12;86.50;102437.59;5097479;27;45290;-74
2023/03/01 02:40:57;;;;;;;;;31.00;25.75;;;;;4.12;86.44;102433.09;5097063;27;45360;-74
2023/03/01 02:43:28;;;;;;;;;38.25;32.25;;;;;4.08;87.22;102444.94;5097247;27;45258;-74
2023/03/01 02:45:58;;;;;;;;;43.50;31.00;;;;;4.18;86.64;102424.75;5095466;27;45651;-74
2023/03/01 02:48:24;;;;;;;;;33.25;29.50;;;;;4.29;86.29;102435.94;5097161;27;46341;-74
2023/03/01 02:50:52;;;;;;;;;43.25;38.75;;;;;4.28;86.82;102446.75;5095987;27;46025;-74
2023/03/01 02:53:55;;;;;;;;;44.00;39.25;;;;;4.19;87.56;102433.69;5094004;27;45495;-74
2023/03/01 02:56:20;;;;;;;;;41.75;28.50;;;;;4.06;88.09;102421.72;5098711;27;45621;-74
2023/03/01 02:58:51;;;;;;;;;32.25;29.25;;;;;4.00;89.23;102430.94;5100581;27;45374;-74
2023/03/01 03:01:16;;;;;;;;;39.75;35.00;;;;;4.13;87.78;102417.81;5099511;27;45439;-74
2023/03/01 03:03:42;;;;;;;;;32.25;28.25;;;;;4.02;88.39;102407.50;5097356;27;45284;-74
2023/03/01 03:06:08;;;;;;;;;47.00;28.50;;;;;3.90;90.00;102421.50;5096852;27;45499;-74
2023/03/01 03:08:33;;;;;;;;;36.25;32.00;;;;;3.99;89.48;102401.41;5096396;27;47105;-74
2023/03/01 03:10:58;;;;;;;;;24.25;19.75;;;;;4.00;89.84;102405.84;5093289;27;45667;-74
2023/03/01 03:13:28;;;;;;;;;34.00;27.25;;;;;4.04;89.49;102399.38;5100600;27;45429;-74
2023/03/01 03:15:54;;;;;;;;;39.50;27.75;;;;;4.02;89.52;102414.72;5096420;27;45669;-74
2023/03/01 03:18:20;;;;;;;;;34.25;28.50;;;;;4.16;89.54;102401.56;5100836;27;48273;-74
2023/03/01 03:20:46;;;;;;;;;33.25;28.25;;;;;4.08;89.43;102399.19;5097395;27;45408;-74
2023/03/01 03:23:12;;;;;;;;;31.50;27.75;;;;;4.13;90.10;102407.06;5106337;27;45508;-74
2023/03/01 03:25:37;;;;;;;;;30.50;26.00;;;;;4.19;89.98;102412.16;5089932;27;45297;-74
2023/03/01 03:28:09;;;;;;;;;37.50;29.50;;;;;4.14;89.96;102406.13;5103233;27;46467;-74
2023/03/01 03:30:36;;;;;;;;;35.25;28.25;;;;;4.23;90.04;102419.19;5101986;27;45575;-74
2023/03/01 03:33:01;;;;;;;;;35.00;28.00;;;;;4.07;92.81;102410.03;5103021;27;45377;-74
2023/03/01 03:35:32;;;;;;;;;36.00;30.50;;;;;4.04;94.27;102418.22;5097972;27;45277;-74
2023/03/01 03:38:03;;;;;;;;;29.25;26.75;;;;;3.81;94.88;102411.13;5104438;27;46075;-74
2023/03/01 03:40:43;;;;;;;;;31.00;26.00;;;;;3.74;95.40;102405.13;5103696;27;45439;-74
2023/03/01 03:43:14;;;;;;;;;39.50;34.50;;;;;3.79;96.27;102416.59;5095613;27;45355;-74
2023/03/01 03:45:40;;;;;;;;;35.00;30.00;;;;;3.70;97.27;102408.91;5101631;27;45469;-74
2023/03/01 03:48:09;;;;;;;;;34.25;29.50;;;;;3.68;97.78;102410.75;5096564;27;45744;-74
2023/03/01 03:50:35;;;;;;;;;40.00;32.25;;;;;3.72;98.33;102407.03;5102173;27;45443;-74
2023/03/01 03:53:03;;;;;;;;;35.25;27.00;;;;;3.46;98.75;102397.34;5098710;27;45538;-73
2023/03/01 03:55:30;;;;;;;;;35.75;30.25;;;;;3.54;99.77;102402.41;5103760;27;45385;-74
2023/03/01 03:57:58;;;;;;;;;26.25;23.00;;;;;3.66;100.00;102407.25;5100106;27;46547;-74
2023/03/01 04:00:23;;;;;;;;;26.00;24.50;;;;;3.63;99.65;102385.03;5100251;27;45725;-74
2023/03/01 04:02:50;;;;;;;;;36.00;33.50;;;;;3.73;99.36;102389.94;5095338;27;45238;-74
2023/03/01 04:05:18;;;;;;;;;39.50;32.25;;;;;3.65;99.47;102385.84;5101897;27;46248;-74
2023/03/01 04:07:44;;;;;;;;;27.75;26.25;;;;;3.71;99.85;102415.16;5093994;27;48327;-74
2023/03/01 04:10:15;;;;;;;;;37.00;29.50;;;;;3.41;100.00;102371.59;5095015;27;45329;-74
2023/03/01 04:12:43;;;;;;;;;31.25;29.50;;;;;3.46;100.00;102388.41;5100630;27;45503;-74
2023/03/01 04:15:15;;;;;;;;;39.25;35.75;;;;;3.52;100.00;102389.03;5099935;27;45553;-74
2023/03/01 04:17:42;;;;;;;;;33.50;30.25;;;;;3.53;100.00;102385.41;5099781;27;46875;-74
2023/03/01 04:20:24;;;;;;;;;33.25;27.00;;;;;3.63;100.00;102410.09;5095847;27;45244;-73
2023/03/01 04:23:13;;;;;;;;;34.25;30.75;;;;;3.42;100.00;102384.97;5095516;27;45369;-74
2023/03/01 04:25:57;;;;;;;;;40.50;29.50;;;;;3.59;100.00;102394.13;5090537;27;45251;-74
2023/03/01 04:28:28;;;;;;;;;25.00;22.75;;;;;3.36;100.00;102376.31;5099197;27;47867;-74
2023/03/01 04:30:56;;;;;;;;;31.00;27.00;;;;;3.36;100.00;102376.31;5099834;27;45459;-74
2023/03/01 04:33:22;;;;;;;;;29.25;24.50;;;;;3.51;100.00;102394.44;5101858;27;45458;-74
2023/03/01 04:35:49;;;;;;;;;33.75;30.50;;;;;3.43;100.00;102383.16;5100645;27;45341;-74
2023/03/01 04:38:15;;;;;;;;;35.00;32.75;;;;;3.61;100.00;102382.41;5101530;27;45454;-74
2023/03/01 04:40:42;;;;;;;;;30.75;25.50;;;;;3.42;100.00;102359.94;5102553;27;45370;-74
2023/03/01 04:43:10;;;;;;;;;41.25;32.75;;;;;3.51;100.00;102376.50;5095534;27;45356;-74
2023/03/01 04:45:35;;;;;;;;;34.50;31.25;;;;;3.45;100.00;102395.59;5097858;27;45475;-73
2023/03/01 04:48:01;;;;;;;;;34.25;26.50;;;;;3.43;100.00;102361.69;5100004;27;46216;-74
2023/03/01 04:50:27;;;;;;;;;39.25;33.50;;;;;3.49;100.00;102345.28;5101736;27;45382;-74
2023/03/01 04:52:53;;;;;;;;;41.75;31.50;;;;;3.49;100.00;102358.72;5097451;27;46033;-74
2023/03/01 04:55:19;;;;;;;;;37.00;33.00;;;;;3.59;100.00;102386.06;5100953;27;45485;-73
2023/03/01 04:57:44;;;;;;;;;35.50;30.50;;;;;3.72;100.00;102379.28;5096592;27;47918;-73
2023/03/01 05:00:21;;;;;;;;;41.75;34.75;;;;;3.74;100.00;102364.81;5099536;27;46482;-75
2023/03/01 05:02:49;;;;;;;;;46.25;36.50;;;;;3.74;100.00;102378.25;5097704;27;45545;-73
2023/03/01 05:05:15;;;;;;;;;49.50;42.50;;;;;3.66;100.00;102366.06;5097514;27;45715;-74
2023/03/01 05:07:40;;;;;;;;;41.50;34.25;;;;;3.52;100.00;102366.66;5097056;27;46545;-74
2023/03/01 05:10:06;;;;;;;;;42.50;36.25;;;;;3.56;100.00;102372.78;5097381;27;45450;-74
2023/03/01 05:12:31;;;;;;;;;34.75;32.75;;;;;3.60;100.00;102375.25;5103085;27;45170;-74
2023/03/01 05:14:58;;;;;;;;;40.25;36.75;;;;;3.62;100.00;102381.47;5105068;27;45171;-74
2023/03/01 05:17:23;;;;;;;;;43.00;39.00;;;;;3.41;100.00;102358.19;5098306;27;45590;-73
2023/03/01 05:19:49;;;;;;;;;26.75;26.75;;;;;3.37;100.00;102361.91;5093087;27;45470;-73
2023/03/01 05:22:14;;;;;;;;;40.25;35.50;;;;;3.25;100.00;102335.56;5097015;27;45383;-74
2023/03/01 05:24:39;;;;;;;;;45.00;39.25;;;;;3.38;100.00;102359.16;5103043;27;45356;-73
2023/03/01 05:27:06;;;;;;;;;41.25;38.25;;;;;3.36;100.00;102354.81;5094680;27;45603;-75
2023/03/01 05:29:34;;;;;;;;;46.50;40.50;;;;;3.46;100.00;102366.91;5095401;27;45416;-73
2023/03/01 05:32:01;;;;;;;;;43.00;35.75;;;;;3.52;100.00;102372.91;5095225;27;45455;-72
2023/03/01 05:34:29;;;;;;;;;50.00;40.25;;;;;3.45;100.00;102365.16;5096258;27;45245;-72
2023/03/01 05:36:54;;;;;;;;;43.25;37.75;;;;;3.53;100.00;102363.03;5097873;27;45595;-74
2023/03/01 05:39:25;;;;;;;;;48.50;43.50;;;;;3.63;100.00;102364.41;5103615;27;45368;-75
2023/03/01 05:41:55;;;;;;;;;41.25;34.50;;;;;3.68;100.00;102357.00;5095590;27;45529;-73
2023/03/01 05:44:21;;;;;;;;;56.00;43.00;;;;;3.43;100.00;102351.78;5095072;27;45454;-74
2023/03/01 05:46:47;;;;;;;;;51.50;42.50;;;;;3.46;100.00;102354.34;5091877;27;45377;-73
2023/03/01 05:49:13;;;;;;;;;43.00;38.00;;;;;3.38;100.00;102352.91;5101217;27;45945;-75
2023/03/01 05:51:39;;;;;;;;;43.25;38.25;;;;;3.42;100.00;102357.25;5093305;27;45629;-73
2023/03/01 05:54:05;;;;;;;;;61.00;46.00;;;;;3.46;100.00;102370.47;5103387;27;45411;-76
2023/03/01 05:56:35;;;;;;;;;47.00;41.25;;;;;3.37;100.00;102369.97;5099935;27;46314;-73
2023/03/01 05:59:02;;;;;;;;;59.00;45.75;;;;;3.27;100.00;102374.84;5089485;27;46593;-73
2023/03/01 06:01:27;;;;;;;;;53.75;43.75;;;;;3.10;100.00;102346.00;5098673;27;45402;-73
2023/03/01 06:03:53;;;;;;;;;50.00;43.25;;;;;3.26;100.00;102358.81;5099341;27;45381;-72
2023/03/01 06:06:18;;;;;;;;;48.00;42.25;;;;;3.17;100.00;102343.06;5097653;27;46286;-73
2023/03/01 06:08:43;;;;;;;;;47.00;38.75;;;;;3.02;100.00;102340.03;5100048;27;45391;-73
2023/03/01 06:11:09;;;;;;;;;28.25;28.25;;;;;3.10;100.00;102348.69;5099446;27;45480;-74
2023/03/01 06:13:35;;;;;;;;;52.00;43.75;;;;;3.18;100.00;102339.44;5103038;27;45290;-73
2023/03/01 06:16:00;;;;;;;;;48.50;42.75;;;;;3.21;100.00;102339.31;5098392;27;46092;-72
2023/03/01 06:18:25;;;;;;;;;51.00;41.00;;;;;3.26;100.00;102358.81;5095070;27;45247;-73
2023/03/01 06:20:55;;;;;;;;;49.50;42.50;;;;;3.29;100.00;102345.25;5090264;27;45846;-73
2023/03/01 06:23:20;;;;;;;;;50.50;42.00;;;;;3.25;100.00;102340.94;5101399;27;45480;-73
2023/03/01 06:25:46;;;;;;;;;60.50;50.50;;;;;3.16;100.00;102341.28;5098183;27;45592;-76
2023/03/01 06:28:11;;;;;;;;;55.25;45.75;;;;;3.18;100.00;102328.69;5099495;27;45520;-73
2023/03/01 06:30:36;;;;;;;;;51.00;44.50;;;;;3.36;100.00;102347.59;5099252;27;45504;-73
2023/03/01 06:33:05;;;;;;;;;38.50;34.25;;;;;3.25;100.00;102341.81;5097174;27;45604;-74
2023/03/01 06:35:31;;;;;;;;;59.25;45.25;;;;;3.24;100.00;102333.81;5099099;27;45382;-74
2023/03/01 06:37:57;;;;;;;;;54.00;45.25;;;;;3.41;100.00;102334.88;5098458;27;45411;-74
2023/03/01 06:40:23;;;;;;;;;61.50;45.50;;;;;3.37;100.00;102333.22;5097178;27;45398;-74
2023/03/01 06:42:49;;;;;;;;;52.50;45.50;;;;;3.50;100.00;102336.31;5095060;27;45566;-74
2023/03/01 06:45:16;;;;;;;;;59.50;48.50;;;;;3.50;100.00;102342.56;5098191;27;45721;-74
2023/03/01 06:47:41;;;;;;;;;56.75;44.00;;;;;3.33;100.00;102302.06;5094884;27;45338;-73
2023/03/01 06:50:07;;;;;;;;;55.75;41.00;;;;;3.39;100.00;102343.91;5093983;27;45419;-73
2023/03/01 06:52:32;;;;;;;;;61.75;48.75;;;;;3.31;100.00;102329.94;5092184;27;45465;-73
2023/03/01 06:54:58;;;;;;;;;56.75;47.50;;;;;3.36;100.00;102344.06;5098870;27;46363;-74
2023/03/01 06:57:24;;;;;;;;;59.00;43.50;;;;;3.49;100.00;102342.59;5097782;27;45417;-73
2023/03/01 06:59:49;;;;;;;;;64.50;51.00;;;;;3.41;100.00;102325.94;5104510;27;45316;-74
2023/03/01 07:02:15;;;;;;;;;54.75;45.75;;;;;3.48;100.00;102322.03;5099179;27;45493;-73
2023/03/01 07:04:43;;;;;;;;;55.50;42.75;;;;;3.52;100.00;102319.16;5099359;27;45316;-73
2023/03/01 07:07:09;;;;;;;;;66.00;49.75;;;;;3.28;100.00;102298.72;5099238;27;45336;-74
2023/03/01 07:09:34;;;;;;;;;58.25;46.25;;;;;3.47;100.00;102331.91;5101283;27;45546;-73
2023/03/01 07:12:00;;;;;;;;;44.50;41.25;;;;;3.47;100.00;102325.66;5102570;27;45558;-73
2023/03/01 07:14:25;;;;;;;;;56.00;47.00;;;;;3.63;100.00;102317.84;5100795;27;47055;-73
2023/03/01 07:16:53;;;;;;;;;56.00;45.75;;;;;3.57;100.00;102316.28;5097682;27;45312;-73
2023/03/01 07:19:19;;;;;;;;;60.00;47.75;;;;;3.86;100.00;102332.03;5100697;27;45830;-75
2023/03/01 07:21:44;;;;;;;;;60.00;44.50;;;;;3.64;100.00;102312.41;5102438;27;45534;-73
2023/03/01 07:24:10;;;;;;;;;65.50;51.25;;;;;3.77;100.00;102329.75;5100934;27;45326;-72
2023/03/01 07:26:36;;;;;;;;;59.75;49.25;;;;;3.88;100.00;102311.31;5095441;27;45242;-73
2023/03/01 07:29:02;;;;;;;;;57.75;46.25;;;;;4.23;100.00;102330.41;5099985;27;45360;-74
2023/03/01 07:31:28;;;;;;;;;64.25;50.75;;;;;4.31;100.00;102304.88;5097915;27;45549;-74
2023/03/01 07:33:54;;;;;;;;;63.50;50.50;;;;;4.21;100.00;102291.94;5098330;27;47182;-74
2023/03/01 07:36:20;;;;;;;;;64.25;50.00;;;;;4.56;100.00;102331.53;5099041;27;45382;-74
2023/03/01 07:38:46;;;;;;;;;55.75;46.00;;;;;4.44;100.00;102324.03;5094287;27;45492;-72
2023/03/01 07:41:11;;;;;;;;;58.75;46.00;;;;;4.49;100.00;102303.16;5099983;27;45435;-74
2023/03/01 07:43:36;;;;;;;;;54.00;46.00;;;;;4.65;100.00;102287.16;5097163;27;45432;-73
2023/03/01 07:46:03;;;;;;;;;63.00;49.25;;;;;4.83;100.00;102306.94;5097943;27;45427;-72
2023/03/01 07:48:30;;;;;;;;;62.00;46.75;;;;;5.07;100.00;102311.13;5102505;27;45541;-74
2023/03/01 07:51:03;;;;;;;;;46.75;43.50;;;;;5.28;100.00;102299.28;5099306;27;45467;-73
2023/03/01 07:53:30;;;;;;;;;60.00;48.00;;;;;5.66;100.00;102309.97;5094388;27;47384;-74
2023/03/01 07:56:11;;;;;;;;;61.00;49.25;;;;;5.81;100.00;102272.28;5096995;27;45343;-73
2023/03/01 07:58:38;;;;;;;;;62.75;46.50;;;;;6.19;95.34;102302.66;5092030;27;45359;-72
2023/03/01 08:01:06;;;;;;;;;57.25;46.25;;;;;6.50;96.39;102306.41;5100629;27;45548;-73
2023/03/01 08:03:32;;;;;;;;;63.75;47.75;;;;;6.80;91.54;102304.66;5094977;27;48106;-74
2023/03/01 08:06:02;;;;;;;;;61.00;45.50;;;;;6.91;89.05;102314.88;5093195;27;45458;-74
2023/03/01 08:08:28;;;;;;;;;52.75;45.50;;;;;6.95;90.75;102319.13;5089168;27;45385;-74
2023/03/01 08:10:56;;;;;;;;;58.75;45.25;;;;;7.06;88.19;102307.72;5088361;27;45516;-74
2023/03/01 08:13:22;;;;;;;;;57.00;44.50;;;;;7.20;85.63;102315.91;5100106;27;45525;-74
2023/03/01 08:15:49;;;;;;;;;60.25;44.75;;;;;7.21;83.40;102318.53;5100105;27;45407;-72
2023/03/01 08:18:14;;;;;;;;;60.75;48.25;;;;;6.91;84.60;102313.06;5101356;27;45425;-74
2023/03/01 08:20:40;;;;;;;;;64.00;48.75;;;;;7.00;83.32;102304.44;5099598;27;45336;-73
2023/03/01 08:23:05;;;;;;;;;63.25;47.25;;;;;7.33;83.71;102292.59;5103028;27;46480;-73
2023/03/01 08:25:31;;;;;;;;;42.25;34.50;;;;;7.57;83.99;102291.16;5101499;27;45333;-73
2023/03/01 08:27:56;;;;;;;;;57.75;43.25;;;;;7.91;78.85;102318.88;5097944;27;45379;-73
2023/03/01 08:30:23;;;;;;;;;61.00;46.00;;;;;7.06;77.97;102264.50;5102187;27;45695;-73
2023/03/01 08:32:49;;;;;;;;;49.75;39.25;;;;;6.52;81.70;102285.56;5096778;27;46371;-73
2023/03/01 08:35:14;;;;;;;;;54.50;45.25;;;;;6.85;79.93;102282.81;5102110;27;45435;-74
2023/03/01 08:37:39;;;;;;;;;55.00;43.75;;;;;7.20;79.79;102310.50;5094795;27;45769;-74
2023/03/01 08:40:09;;;;;;;;;59.00;48.25;;;;;7.07;78.64;102280.63;5096993;27;45351;-74
2023/03/01 08:42:35;;;;;;;;;47.50;42.00;;;;;7.27;78.89;102301.09;5096976;27;46470;-74
2023/03/01 08:45:00;;;;;;;;;56.75;47.75;;;;;7.27;77.37;102279.47;5099559;27;45432;-73
2023/03/01 08:47:26;;;;;;;;;61.00;49.00;;;;;7.19;77.82;102300.66;5107371;27;45335;-74
2023/03/01 08:49:52;;;;;;;;;59.00;47.00;;;;;6.67;79.91;102282.00;5104358;27;45364;-74
2023/03/01 08:52:18;;;;;;;;;65.75;52.75;;;;;6.58;81.58;102280.69;5099882;27;45515;-74
2023/03/01 08:54:44;;;;;;;;;59.00;48.00;;;;;6.51;82.24;102283.81;5103996;27;45503;-73
2023/03/01 08:57:09;;;;;;;;;50.50;41.75;;;;;6.70;82.93;102283.69;5097206;27;45440;-76
2023/03/01 08:59:37;;;;;;;;;54.00;41.25;;;;;7.00;82.11;102282.81;5101948;27;45516;-76
2023/03/01 09:02:04;;;;;;;;;56.50;46.75;;;;;7.10;81.41;102253.41;5099351;27;45322;-76
2023/03/01 09:04:29;;;;;;;;;52.00;43.00;;;;;7.19;77.08;102236.66;5101663;27;45472;-76
2023/03/01 09:06:55;;;;;;;;;60.25;49.75;;;;;7.24;77.88;102266.97;5100812;27;46038;-76
2023/03/01 09:09:20;;;;;;;;;52.75;41.00;;;;;7.00;78.26;102260.31;5101809;27;45455;-76
2023/03/01 09:11:47;;;;;;;;;49.25;41.25;;;;;7.15;78.01;102220.72;5099663;27;45548;-75
2023/03/01 09:14:13;;;;;;;;;53.25;46.25;;;;;7.40;75.57;102246.19;5099890;27;45381;-75
2023/03/01 09:16:39;;;;;;;;;57.50;45.75;;;;;7.00;75.89;102223.38;5092080;27;45502;-71
2023/03/01 09:19:05;;;;;;;;;50.75;40.50;;;;;7.20;75.83;102257.31;5097653;27;46164;-74
2023/03/01 09:21:31;;;;;;;;;37.00;34.00;;;;;7.27;75.50;102247.88;5094180;27;45710;-74
2023/03/01 09:23:57;;;;;;;;;48.25;42.00;;;;;7.47;75.71;102251.22;5101401;27;45235;-74
2023/03/01 09:26:23;;;;;;;;;57.75;44.00;;;;;7.36;73.45;102214.03;5096087;27;45439;-74
2023/03/01 09:28:52;;;;;;;;;51.25;45.00;;;;;7.00;75.90;102211.69;5104259;27;45262;-74
2023/03/01 09:31:19;;;;;;;;;56.75;44.25;;;;;7.30;75.95;102247.72;5097774;27;46597;-74
2023/03/01 09:33:47;;;;;;;;;56.00;44.50;;;;;7.41;75.21;102225.44;5103570;27;45253;-75
2023/03/01 09:36:16;;;;;;;;;51.00;42.75;;;;;7.19;75.09;102227.66;5098886;27;45320;-75
2023/03/01 09:38:41;;;;;;;;;60.50;45.00;;;;;7.32;75.65;102234.97;5101129;27;45320;-75
2023/03/01 09:41:26;;;;;;;;;60.25;45.25;;;;;7.51;75.22;102239.28;5097013;27;45436;-73
2023/03/01 09:44:05;;;;;;;;;51.50;41.50;;;;;7.29;73.97;102226.19;5103202;27;45327;-74
2023/03/01 09:46:40;;;;;;;;;60.50;48.75;;;;;7.12;74.20;102207.38;5093876;27;45406;-73
2023/03/01 09:49:14;;;;;;;;;43.75;38.50;;;;;6.92;75.72;102224.75;5096470;27;45520;-73
2023/03/01 09:51:39;;;;;;;;;39.25;32.75;;;;;6.22;77.94;102174.75;5094831;27;47863;-74
2023/03/01 09:54:08;;;;;;;;;52.00;42.50;;;;;6.55;78.63;102199.88;5099515;27;45502;-74
2023/03/01 09:57:01;;;;;;;;;40.75;33.00;;;;;6.74;77.97;102206.91;5097879;27;45383;-74
2023/03/01 09:59:37;;;;;;;;;39.75;37.25;;;;;6.80;79.01;102203.84;5100748;27;45431;-75
2023/03/01 10:02:20;;;;;;;;;53.50;43.00;;;;;7.20;77.41;102229.41;5096364;27;45600;-75
2023/03/01 10:04:54;;;;;;;;;42.00;34.75;;;;;7.04;77.31;102199.72;5096061;27;45465;-75
2023/03/01 10:07:47;;;;;;;;;53.00;43.00;;;;;7.10;77.47;102212.00;5094614;27;45246;-74
2023/03/01 10:10:42;;;;;;;;;51.50;42.75;;;;;7.17;77.66;102186.34;5099093;27;45429;-73
2023/03/01 10:13:21;;;;;;;;;57.25;44.75;;;;;7.40;78.06;102216.44;5097763;27;45462;-73
2023/03/01 10:15:55;;;;;;;;;53.75;44.25;;;;;7.78;78.09;102202.41;5099937;27;45456;-73
2023/03/01 10:18:30;;;;;;;;;57.50;45.00;;;;;7.50;75.40;102189.72;5094421;27;45379;-75
2023/03/01 10:20:59;;;;;;;;;63.25;47.75;;;;;7.32;77.06;102196.25;5098873;27;45341;-75
2023/03/01 10:23:27;;;;;;;;;46.00;39.50;;;;;6.90;78.13;102154.59;5095179;27;46270;-74
2023/03/01 10:25:59;;;;;;;;;61.25;45.00;;;;;7.24;79.05;102195.81;5095778;27;45531;-74
2023/03/01 10:28:50;;;;;;;;;59.25;47.00;;;;;7.28;79.09;102202.81;5098688;27;45400;-75
2023/03/01 10:31:26;;;;;;;;;54.25;45.50;;;;;7.16;77.83;102163.00;5080657;27;45411;-73
2023/03/01 10:33:54;;;;;;;;;62.25;51.50;;;;;7.38;76.73;102185.91;5098834;27;46488;-75
2023/03/01 10:36:20;;;;;;;;;62.75;46.50;;;;;7.29;76.83;102174.81;5098501;27;45740;-75
2023/03/01 10:38:57;;;;;;;;;49.75;40.25;;;;;7.58;76.52;102182.03;5098356;27;45466;-74
2023/03/01 10:41:24;;;;;;;;;53.00;43.75;;;;;7.77;74.91;102190.72;5095484;27;45483;-74
2023/03/01 10:43:57;;;;;;;;;58.00;45.25;;;;;8.00;73.89;102193.84;5095756;27;47262;-74
2023/03/01 10:46:27;;;;;;;;;45.25;38.75;;;;;8.05;71.81;102180.88;5094440;27;45446;-75
2023/03/01 10:49:14;;;;;;;;;47.25;39.25;;;;;8.13;71.43;102181.25;5097015;27;45399;-74
2023/03/01 10:51:43;;;;;;;;;55.50;40.25;;;;;7.70;72.54;102175.84;5097103;27;45614;-74
2023/03/01 10:54:16;;;;;;;;;43.25;38.75;;;;;7.83;72.55;102182.22;5098821;27;46657;-74
2023/03/01 10:56:53;;;;;;;;;53.50;43.25;;;;;8.14;71.46;102169.47;5092330;27;45517;-73
2023/03/01 10:59:32;;;;;;;;;54.00;44.50;;;;;7.78;71.47;102132.06;5099096;27;45504;-73
2023/03/01 11:02:21;;;;;;;;;57.00;41.75;;;;;8.19;72.05;102167.31;5090675;27;45384;-74
2023/03/01 11:05:19;;;;;;;;;55.50;46.75;;;;;7.75;70.76;102146.66;5098748;27;46517;-74
2023/03/01 11:07:57;;;;;;;;;45.25;39.00;;;;;7.79;70.55;102115.75;5110095;27;45478;-75
2023/03/01 11:10:40;;;;;;;;;58.75;44.25;;;;;8.06;70.68;102131.19;5099199;27;45404;-76
2023/03/01 11:13:16;;;;;;;;;58.25;44.50;;;;;8.39;70.63;102142.59;5102824;27;45388;-75
2023/03/01 11:15:42;;;;;;;;;56.50;46.00;;;;;8.52;69.10;102157.06;5097052;27;46555;-75
2023/03/01 11:18:22;;;;;;;;;44.50;35.75;;;;;8.36;68.96;102107.56;5098896;27;45414;-75
2023/03/01 11:20:51;;;;;;;;;56.50;44.00;;;;;8.49;68.55;102143.69;5088195;27;45412;-75
2023/03/01 11:23:18;;;;;;;;;54.75;44.75;;;;;8.39;67.22;102142.59;5098953;27;45250;-74